Latest Coastal Weather Observations for Moruya Airport

IDN60701

Issued at 7:41 am EST Thursday 1 September 2016 (issued every 10 minutes, with the page automatically refreshed every 10 minutes)

About coastal observations | Map of coastal stations | Coastal observations for NSW | Marine services | Other Formats
Station Details ID: 069148 Name: MORUYA AIRPORT AWS Lat: -35.90 Lon: 150.14 Height: 4.0 m
Data from the previous 72 hours. | See also: Recent months at Moruya Airport
Date/Time
EST
Temp
°C
Wind Pressure Rain since
9am
mm
Weather Cloud Vis
km
Sea
Height
m
Swell
Dir  Spd
kts
Gust
kts
hPa Trend Height
m
Period
s
Dir
01/07:30am 9.8 CALM 0 0 1017.9 - 0.0 - - 10 - - - -
01/07:00am 7.0 CALM 0 0 1017.8 - 0.0 - - 10 - - - -
01/06:31am 5.1 CALM 0 0 1017.5 - 0.0 - - 10 - - - -
01/06:30am 5.1 CALM 0 0 1017.5 - 0.0 - - 10 - - - -
01/06:12am 4.9 CALM 0 3 1017.2 - 0.0 - - 4 - - - -
01/06:00am 5.7 NNW 2 3 1017.1 - 0.0 - - 6 - - - -
01/05:30am 6.5 N 1 3 1017.0 - 0.0 - - 10 - - - -
01/05:00am 7.0 NW 5 8 1016.7 - 0.0 - - 10 - - - -
01/04:30am 6.9 W 4 6 1016.7 - 0.0 - - 10 - - - -
01/04:00am 6.8 WNW 5 7 1016.6 - 0.0 - - 10 - - - -
01/03:30am 8.5 SSW 1 4 1016.6 - 0.0 - - 10 - - - -
01/03:00am 8.6 SW 5 7 1016.8 - 0.0 - - 10 - - - -
01/02:30am 8.8 NW 2 4 1016.8 - 0.0 - Partly cloudy 10 - - - -
01/02:00am 8.9 WNW 3 5 1016.9 - 0.0 - Partly cloudy 10 - - - -
01/01:30am 9.0 W 3 4 1016.8 - 0.0 - Partly cloudy 10 - - - -
01/01:00am 9.6 WSW 3 5 1016.7 - 0.0 - Partly cloudy 10 - - - -
01/12:30am 10.2 WNW 5 6 1016.6 - 0.0 - Partly cloudy 10 - - - -
01/12:00am 10.3 SSE 6 8 1016.2 - 0.0 - Partly cloudy 10 - - - -
 
Date/Time
EST
Temp
°C
Wind Pressure Rain since
9am
mm
Weather Cloud Vis
km
Sea
Height
m
Swell
Dir  Spd
kts
Gust
kts
hPa Trend Height
m
Period
s
Dir
31/11:30pm 10.7 SW 7 8 1016.0 - 0.0 - Partly cloudy 10 - - - -
31/11:00pm 10.8 NW 7 8 1015.8 - 0.0 - - 10 - - - -
31/10:30pm 9.7 CALM 0 3 1015.7 - 0.0 - - 10 - - - -
31/10:00pm 10.1 NW 4 6 1015.5 - 0.0 - - 10 - - - -
31/09:30pm 10.9 NW 4 5 1015.5 - 0.0 - - 10 - - - -
31/09:00pm 12.4 WSW 3 5 1015.2 - 0.0 - - 10 - - - -
31/08:30pm 14.2 S 5 6 1015.0 - 0.0 - - 10 - - - -
31/08:00pm 12.8 WSW 6 8 1014.5 - 0.0 - - 10 - - - -
31/07:30pm 13.0 W 4 5 1013.8 - 0.0 - - 10 - - - -
31/07:00pm 13.8 NW 5 6 1013.3 - 0.0 - - 10 - - - -
31/06:30pm 14.9 SW 5 6 1013.0 - 0.0 - - 10 - - - -
31/06:00pm 16.0 W 1 4 1012.2 - 0.0 - - 10 - - - -
31/05:30pm 18.2 NW 3 4 1011.7 - 0.0 - - 8 - - - -
31/05:00pm 20.9 WSW 5 6 1011.4 - 0.0 - - 10 - - - -
31/04:30pm 22.9 WNW 4 6 1011.0 - 0.0 - Partly cloudy 10 - - - -
31/04:00pm 23.1 NW 8 16 1011.0 - 0.0 - - 10 - - - -
31/03:30pm 23.5 NNW 11 21 1010.6 - 0.0 - - 10 - - - -
31/03:00pm 22.9 NW 9 15 1010.8 - 0.0 - - 10 - - - -
31/02:30pm 23.4 NW 10 19 1010.9 - 0.0 - Partly cloudy 10 - - - -
31/02:00pm 22.2 NNW 10 18 1011.0 - 0.0 - Partly cloudy 10 - - - -
31/01:30pm 22.0 NNW 11 19 1011.4 - 0.0 - Partly cloudy 10 - - - -
31/01:00pm 22.6 NNW 10 16 1011.6 - 0.0 - Partly cloudy 10 - - - -
31/12:30pm 22.4 NNW 9 17 1011.6 - 0.0 - - 10 - - - -
31/12:00pm 21.9 N 9 13 1012.1 - 0.0 - Mostly clear 10 - - - -
31/11:30am 21.0 NNE 11 14 1012.8 - 0.0 - Partly cloudy 10 - - - -
31/11:00am 21.2 N 7 11 1013.2 - 0.0 - - 10 - - - -
31/10:30am 21.5 NNW 10 14 1013.6 - 0.0 - Partly cloudy 10 - - - -
31/10:00am 21.0 N 8 11 1014.5 - 0.0 - Partly cloudy 10 - - - -
31/09:30am 20.6 N 10 16 1014.7 - 0.0 - Partly cloudy 10 - - - -
31/09:00am 21.5 N 7 14 1014.5 - 0.0 - Mostly clear 10 - - - -
31/08:30am 19.3 NE 9 12 1014.4 - 0.0 - - 10 - - - -
31/08:00am 18.6 NE 7 9 1014.9 - 0.0 - Partly cloudy 10 - - - -
31/07:30am 18.8 N 6 8 1014.5 - 0.0 - Partly cloudy 10 - - - -
31/07:00am 18.1 N 6 9 1015.0 - 0.0 - Partly cloudy 10 - - - -
31/06:30am 17.1 NNE 11 15 1015.3 - 0.0 - - 10 - - - -
31/06:00am 17.5 NE 10 13 1015.4 - 0.0 - Cloudy 10 - - - -
31/05:30am 16.9 NE 8 9 1015.5 - 0.0 - Partly cloudy 10 - - - -
31/05:00am 17.4 NNE 9 13 1015.7 - 0.0 - Partly cloudy 10 - - - -
31/04:30am 16.8 N 8 11 1015.8 - 0.0 - Partly cloudy 10 - - - -
31/04:00am 15.9 N 8 9 1015.6 - 0.0 - Partly cloudy 10 - - - -
31/03:32am 14.7 NNE 6 9 1015.3 - 0.0 - - 6 - - - -
31/03:30am 14.8 NNE 7 9 1015.4 - 0.0 - - 6 - - - -
31/03:00am 15.0 NE 6 7 1015.7 - 0.0 - Mostly cloudy 5 - - - -
31/02:58am 14.9 NE 6 7 1015.7 - 0.0 - - 5 - - - -
31/02:30am 14.3 N 8 9 1016.2 - 0.0 - - 10 - - - -
31/02:26am 14.2 NNE 9 9 1016.2 - 0.0 - - 10 - - - -
31/02:00am 14.3 NNE 9 11 1017.0 - 0.0 - - 5 - - - -
31/01:59am 14.3 NNE 9 11 1017.0 - 0.0 - - 5 - - - -
31/01:30am 13.1 NNE 7 7 1017.3 - 0.0 - - 10 - - - -
31/01:00am 13.4 NNE 6 7 1017.9 - 0.0 - - 10 - - - -
31/12:30am 13.9 NNW 6 8 1018.0 - 0.0 - - 10 - - - -
31/12:00am 13.1 N 5 7 1018.6 - 0.0 - Cloudy 10 - - - -
 
Date/Time
EST
Temp
°C
Wind Pressure Rain since
9am
mm
Weather Cloud Vis
km
Sea
Height
m
Swell
Dir  Spd
kts
Gust
kts
hPa Trend Height
m
Period
s
Dir
30/11:30pm 13.0 NW 4 5 1018.8 - 0.0 - - 10 - - - -
30/11:00pm 13.0 CALM 0 0 1019.3 - 0.0 - - 10 - - - -
30/10:30pm 13.1 CALM 0 0 1019.5 - 0.0 - - 10 - - - -
30/10:00pm 13.7 NNW 2 4 1019.9 - 0.0 - - 10 - - - -
30/09:30pm 14.0 SW 3 5 1019.6 - 0.0 - - 10 - - - -
30/09:00pm 14.0 CALM 0 0 1019.9 - 0.0 - Cloudy 10 - - - -
30/08:30pm 14.2 CALM 0 0 1019.5 - 0.0 - - 10 - - - -
30/08:00pm 14.4 CALM 0 0 1019.9 - 0.0 - Partly cloudy 10 - - - -
30/07:30pm 14.5 CALM 0 0 1020.3 - 0.0 - - 10 - - - -
30/07:00pm 14.9 CALM 0 0 1020.6 - 0.0 - - 10 - - - -
30/06:33pm 15.2 WSW 3 4 1020.6 - 0.0 - - 10 - - - -
30/06:30pm 15.3 WSW 2 4 1020.6 - 0.0 - - 10 - - - -
30/06:00pm 16.0 NNE 3 3 1020.4 - 0.0 - Cloudy 4 - - - -
30/05:58pm 16.1 NNE 3 3 1020.4 - 0.0 - - 5 - - - -
30/05:30pm 16.8 N 4 5 1020.3 - 0.0 - - 10 - - - -
30/05:00pm 17.3 N 6 9 1020.3 - 0.0 - - 10 - - - -
30/04:30pm 17.5 NNE 11 14 1020.0 - 0.0 - - 10 - - - -
30/04:00pm 17.8 NNE 11 13 1020.5 - 0.0 - - 10 - - - -
30/03:30pm 18.1 NNE 11 15 1020.3 - 0.0 - - 10 - - - -
30/03:00pm 18.4 NNE 11 13 1020.9 - 0.0 - Mostly cloudy 10 - - - -
30/02:30pm 18.0 NE 8 12 1021.3 - 0.0 - - 10 - - - -
30/02:00pm 19.2 ENE 9 11 1021.6 - 0.0 - - 10 - - - -
30/01:30pm 18.4 NE 10 13 1021.7 - 0.0 - - 10 - - - -
30/01:00pm 18.5 NE 9 11 1022.2 - 0.0 - - 10 - - - -
30/12:30pm 18.0 NE 9 13 1022.4 - 0.0 - - 10 - - - -
30/12:00pm 17.9 ENE 8 10 1023.8 - 0.0 - Cloudy 10 - - - -
30/11:30am 18.1 N 7 10 1024.3 - 0.0 - - 10 - - - -
30/11:00am 17.3 NNW 5 7 1025.0 - 0.0 - - 10 - - - -
30/10:30am 16.5 NNW 3 6 1024.8 - 0.0 - - 10 - - - -
30/10:00am 14.7 N 3 6 1025.1 - 0.0 - - 10 - - - -
30/09:30am 13.9 ENE 4 6 1024.9 - 0.0 - - 10 - - - -
30/09:00am 12.5 E 1 3 1025.3 - 0.0 - - 10 - - - -
30/08:30am 11.2 CALM 0 0 1025.6 - 0.0 - - 10 - - - -
30/08:00am 10.0 NW 3 5 1025.8 - 0.0 - - 10 - - - -
30/07:30am 9.0 S 2 4 1025.4 - 0.0 - - 10 - - - -
30/07:00am 7.2 CALM 0 0 1025.1 - 0.0 - - 10 - - - -
30/06:36am 6.3 CALM 0 0 1025.2 - 0.0 - - 10 - - - -
30/06:30am 6.3 CALM 0 0 1025.2 - 0.0 - - 10 - - - -
30/06:05am 6.0 CALM 0 0 1025.1 - 0.0 - - 5 - - - -
30/06:00am 6.7 CALM 0 0 1025.0 - 0.0 - - 9 - - - -
30/05:59am 6.7 CALM 0 0 1024.9 - 0.0 - - 9 - - - -
30/05:30am 6.7 CALM 0 0 1024.8 - 0.0 - - 0.3 - - - -
30/05:00am 6.8 CALM 0 3 1024.6 - 0.0 - - 4 - - - -
30/04:40am 7.1 CALM 0 0 1025.0 - 0.0 - - 9 - - - -
30/04:30am 7.5 CALM 0 0 1024.9 - 0.0 - - 5 - - - -
30/04:21am 7.1 CALM 0 0 1024.8 - 0.0 - - 4 - - - -
30/04:00am 7.9 CALM 0 0 1024.6 - 0.0 - - 10 - - - -
30/03:40am 7.4 CALM 0 0 1024.5 - 0.0 - - 10 - - - -
30/03:30am 7.8 CALM 0 0 1024.3 - 0.0 - - 3 - - - -
30/03:20am 8.1 CALM 0 3 1024.5 - 0.0 - - 2 - - - -
30/03:00am 8.2 CALM 0 0 1024.4 - 0.0 - Partly cloudy 10 - - - -
30/02:30am 8.1 CALM 0 0 1024.4 - 0.0 - - 10 - - - -
30/02:09am 8.0 CALM 0 0 1024.6 - 0.0 - - 10 - - - -
30/02:00am 7.8 CALM 0 0 1024.7 - 0.0 - - 6 - - - -
30/01:48am 7.8 CALM 0 0 1024.9 - 0.0 - - 5 - - - -
30/01:40am 7.8 CALM 0 0 1025.1 - 0.0 - - 10 - - - -
30/01:30am 8.1 CALM 0 0 1025.2 - 0.0 - - 3 - - - -
30/01:11am 7.9 CALM 0 0 1025.4 - 0.0 - - 5 - - - -
30/01:00am 8.6 CALM 0 0 1025.6 - 0.0 - - 10 - - - -
30/12:57am 9.0 CALM 0 0 1025.6 - 0.0 - - 10 - - - -
30/12:30am 7.8 NW 5 6 1025.7 - 0.0 - - 7 - - - -
30/12:00am 9.3 CALM 0 0 1025.8 - 0.0 - Partly cloudy 2 - - - -
 
Date/Time
EST
Temp
°C
Wind Pressure Rain since
9am
mm
Weather Cloud Vis
km
Sea
Height
m
Swell
Dir  Spd
kts
Gust
kts
hPa Trend Height
m
Period
s
Dir
29/11:34pm 10.1 CALM 0 0 1025.9 - 0.0 - - 2 - - - -
29/11:30pm 10.4 CALM 0 0 1025.8 - 0.0 - - 10 - - - -
29/11:00pm 10.7 NNW 1 3 1025.8 - 0.0 - - 10 - - - -
29/10:30pm 11.1 CALM 0 0 1025.7 - 0.0 - - 10 - - - -
29/10:00pm 12.4 CALM 0 3 1025.5 - 0.0 - - 10 - - - -
29/09:30pm 12.1 NW 3 4 1025.7 - 0.0 - - 10 - - - -
29/09:00pm 12.6 CALM 0 0 1025.5 - 0.0 - Cloudy 10 - - - -
29/08:30pm 12.6 CALM 0 0 1025.3 - 0.0 - - 10 - - - -
29/08:00pm 13.6 WNW 2 4 1025.2 - 0.0 - - 10 - - - -
29/07:30pm 13.9 WNW 2 3 1025.1 - 0.0 - - 10 - - - -
29/07:00pm 14.0 WNW 3 4 1024.9 - 0.0 - - 10 - - - -
29/06:30pm 14.5 CALM 0 0 1024.8 - 0.0 - - 10 - - - -
29/06:00pm 14.9 CALM 0 0 1024.6 - 0.0 - Mostly cloudy 10 - - - -
29/05:30pm 15.9 CALM 0 0 1024.5 - 0.0 - - 10 - - - -
29/05:00pm 16.7 ENE 3 4 1024.6 - 0.0 - - 10 - - - -
29/04:30pm 17.1 ENE 4 5 1024.6 - 0.0 - - 10 - - - -
29/04:00pm 17.4 E 5 6 1024.6 - 0.0 - - 10 - - - -
29/03:30pm 17.4 E 5 7 1024.5 - 0.0 - - 10 - - - -
29/03:00pm 17.8 ESE 7 8 1024.7 - 0.0 - - 10 - - - -
29/02:30pm 17.9 ESE 7 9 1024.7 - 0.0 - - 10 - - - -
29/02:00pm 18.4 ESE 7 8 1024.6 - 0.0 - - 10 - - - -
29/01:30pm 18.7 ESE 5 7 1024.9 - 0.0 - - 10 - - - -
29/01:00pm 18.5 ESE 7 8 1024.7 - 0.0 - - 10 - - - -
29/12:30pm 19.0 ESE 7 8 1025.1 - 0.0 - - 10 - - - -
29/12:00pm 18.4 SE 7 9 1025.5 - 0.0 - - 10 - - - -
29/11:30am 18.2 ESE 7 8 1026.0 - 0.0 - - 10 - - - -
29/11:00am 18.3 SE 5 7 1026.4 - 0.0 - - 10 - - - -
29/10:30am 17.6 WSW 5 7 1026.8 - 0.0 - - 10 - - - -
29/10:00am 16.4 SSW 6 7 1026.9 - 0.0 - - 10 - - - -
29/09:30am 14.9 SW 6 7 1026.8 - 0.0 - - 10 - - - -
29/09:00am 13.0 SW 6 8 1026.7 - 0.0 - - 10 - - - -
29/08:30am 11.7 W 5 7 1026.7 - 0.0 - - 10 - - - -
29/08:00am 9.5 WSW 4 5 1026.4 - 0.0 - - 10 - - - -

Other Formats:

Comma delimited format used in spreadsheet applications
http://www.bom.gov.au/fwo/IDN60701/IDN60701.95937.axf

JavaScript Object Notation format (JSON) in row-major order
http://www.bom.gov.au/fwo/IDN60701/IDN60701.95937.json